sensor_id;sensor_type;location;lat;lon;timestamp;pressure;altitude;pressure_sealevel;temperature;humidity
11444;BME280;5778;47.856;12.154;2023-02-16T00:00:47;97372.44;;;-1.48;100.00
11444;BME280;5778;47.856;12.154;2023-02-16T00:03:18;97369.06;;;-1.40;100.00
11444;BME280;5778;47.856;12.154;2023-02-16T00:05:47;97366.09;;;-1.45;100.00
11444;BME280;5778;47.856;12.154;2023-02-16T00:08:14;97363.88;;;-1.58;100.00
11444;BME280;5778;47.856;12.154;2023-02-16T00:10:42;97364.66;;;-1.65;100.00
11444;BME280;5778;47.856;12.154;2023-02-16T00:13:32;97365.84;;;-1.77;100.00
11444;BME280;5778;47.856;12.154;2023-02-16T00:16:25;97363.47;;;-1.88;100.00
11444;BME280;5778;47.856;12.154;2023-02-16T00:18:53;97371.88;;;-1.94;100.00
11444;BME280;5778;47.856;12.154;2023-02-16T00:21:20;97376.19;;;-2.03;100.00
11444;BME280;5778;47.856;12.154;2023-02-16T00:23:49;97365.41;;;-2.08;100.00
11444;BME280;5778;47.856;12.154;2023-02-16T00:26:18;97365.56;;;-2.09;100.00
11444;BME280;5778;47.856;12.154;2023-02-16T00:28:48;97365.09;;;-2.22;100.00
11444;BME280;5778;47.856;12.154;2023-02-16T00:31:19;97363.53;;;-2.33;100.00
11444;BME280;5778;47.856;12.154;2023-02-16T00:33:48;97368.28;;;-2.46;100.00
11444;BME280;5778;47.856;12.154;2023-02-16T00:36:19;97358.94;;;-2.39;100.00
11444;BME280;5778;47.856;12.154;2023-02-16T00:38:46;97358.69;;;-2.45;100.00
11444;BME280;5778;47.856;12.154;2023-02-16T00:41:15;97362.47;;;-2.40;100.00
11444;BME280;5778;47.856;12.154;2023-02-16T00:44:04;97359.13;;;-2.32;100.00
11444;BME280;5778;47.856;12.154;2023-02-16T00:46:33;97352.38;;;-2.43;100.00
11444;BME280;5778;47.856;12.154;2023-02-16T00:49:01;97358.09;;;-2.39;100.00
11444;BME280;5778;47.856;12.154;2023-02-16T00:51:29;97356.75;;;-2.43;100.00
11444;BME280;5778;47.856;12.154;2023-02-16T00:53:57;97362.72;;;-2.33;100.00
11444;BME280;5778;47.856;12.154;2023-02-16T00:56:25;97357.66;;;-2.35;100.00
11444;BME280;5778;47.856;12.154;2023-02-16T00:58:52;97358.34;;;-2.33;100.00
11444;BME280;5778;47.856;12.154;2023-02-16T01:01:23;97359.97;;;-2.32;100.00
11444;BME280;5778;47.856;12.154;2023-02-16T01:03:53;97365.84;;;-2.30;100.00
11444;BME280;5778;47.856;12.154;2023-02-16T01:06:21;97360.50;;;-2.28;100.00
11444;BME280;5778;47.856;12.154;2023-02-16T01:09:11;97359.13;;;-2.32;100.00
11444;BME280;5778;47.856;12.154;2023-02-16T01:11:57;97353.41;;;-2.36;100.00
11444;BME280;5778;47.856;12.154;2023-02-16T01:14:25;97354.53;;;-2.38;100.00
11444;BME280;5778;47.856;12.154;2023-02-16T01:16:52;97360.03;;;-2.41;100.00
11444;BME280;5778;47.856;12.154;2023-02-16T01:19:21;97358.63;;;-2.36;100.00
11444;BME280;5778;47.856;12.154;2023-02-16T01:21:48;97358.38;;;-2.42;100.00
11444;BME280;5778;47.856;12.154;2023-02-16T01:24:16;97350.22;;;-2.47;100.00
11444;BME280;5778;47.856;12.154;2023-02-16T01:26:46;97345.53;;;-2.44;100.00
11444;BME280;5778;47.856;12.154;2023-02-16T01:29:16;97345.44;;;-2.34;100.00
11444;BME280;5778;47.856;12.154;2023-02-16T01:31:44;97343.38;;;-2.31;100.00
11444;BME280;5778;47.856;12.154;2023-02-16T01:34:12;97338.53;;;-2.26;100.00
11444;BME280;5778;47.856;12.154;2023-02-16T01:36:45;97338.03;;;-2.12;100.00
11444;BME280;5778;47.856;12.154;2023-02-16T01:39:17;97340.19;;;-2.07;100.00
11444;BME280;5778;47.856;12.154;2023-02-16T01:41:55;97334.59;;;-2.12;100.00
11444;BME280;5778;47.856;12.154;2023-02-16T01:44:28;97324.41;;;-2.06;100.00
11444;BME280;5778;47.856;12.154;2023-02-16T01:47:01;97318.88;;;-2.03;100.00
11444;BME280;5778;47.856;12.154;2023-02-16T01:49:31;97311.06;;;-2.03;100.00
11444;BME280;5778;47.856;12.154;2023-02-16T01:52:04;97307.94;;;-2.06;100.00
11444;BME280;5778;47.856;12.154;2023-02-16T01:54:39;97301.31;;;-2.01;100.00
11444;BME280;5778;47.856;12.154;2023-02-16T01:57:19;97297.59;;;-2.16;100.00
11444;BME280;5778;47.856;12.154;2023-02-16T02:00:04;97302.66;;;-2.14;100.00
11444;BME280;5778;47.856;12.154;2023-02-16T02:02:40;97305.56;;;-2.35;100.00
11444;BME280;5778;47.856;12.154;2023-02-16T02:05:18;97295.97;;;-2.34;100.00
11444;BME280;5778;47.856;12.154;2023-02-16T02:08:20;97296.25;;;-2.55;100.00
11444;BME280;5778;47.856;12.154;2023-02-16T02:10:57;97287.84;;;-2.31;100.00
11444;BME280;5778;47.856;12.154;2023-02-16T02:13:31;97285.69;;;-2.18;100.00
11444;BME280;5778;47.856;12.154;2023-02-16T02:16:04;97283.38;;;-2.21;100.00
11444;BME280;5778;47.856;12.154;2023-02-16T02:18:32;97283.22;;;-2.37;100.00
11444;BME280;5778;47.856;12.154;2023-02-16T02:21:17;97284.19;;;-2.38;100.00
11444;BME280;5778;47.856;12.154;2023-02-16T02:24:50;97288.91;;;-2.42;100.00
11444;BME280;5778;47.856;12.154;2023-02-16T02:27:27;97290.84;;;-2.44;100.00
11444;BME280;5778;47.856;12.154;2023-02-16T02:30:18;97291.34;;;-2.58;100.00
11444;BME280;5778;47.856;12.154;2023-02-16T02:33:31;97290.47;;;-2.49;100.00
11444;BME280;5778;47.856;12.154;2023-02-16T02:36:12;97288.13;;;-2.52;100.00
11444;BME280;5778;47.856;12.154;2023-02-16T02:38:52;97285.84;;;-2.55;100.00
11444;BME280;5778;47.856;12.154;2023-02-16T02:41:29;97284.78;;;-2.62;100.00
11444;BME280;5778;47.856;12.154;2023-02-16T02:44:21;97281.78;;;-2.67;100.00
11444;BME280;5778;47.856;12.154;2023-02-16T02:46:51;97286.56;;;-2.80;100.00
11444;BME280;5778;47.856;12.154;2023-02-16T02:51:46;97284.66;;;-2.87;100.00
11444;BME280;5778;47.856;12.154;2023-02-16T02:54:16;97282.22;;;-2.89;100.00
11444;BME280;5778;47.856;12.154;2023-02-16T02:57:07;97294.56;;;-2.91;100.00
11444;BME280;5778;47.856;12.154;2023-02-16T02:59:57;97295.91;;;-2.87;100.00
11444;BME280;5778;47.856;12.154;2023-02-16T03:02:45;97307.44;;;-2.89;100.00
11444;BME280;5778;47.856;12.154;2023-02-16T03:05:17;97300.06;;;-2.94;100.00
11444;BME280;5778;47.856;12.154;2023-02-16T03:07:47;97305.06;;;-3.10;100.00
11444;BME280;5778;47.856;12.154;2023-02-16T03:10:18;97311.13;;;-3.19;100.00
11444;BME280;5778;47.856;12.154;2023-02-16T03:13:07;97304.97;;;-3.18;100.00
11444;BME280;5778;47.856;12.154;2023-02-16T03:15:40;97308.41;;;-3.17;100.00
11444;BME280;5778;47.856;12.154;2023-02-16T03:18:09;97309.50;;;-3.20;100.00
11444;BME280;5778;47.856;12.154;2023-02-16T03:20:55;97315.75;;;-3.13;100.00
11444;BME280;5778;47.856;12.154;2023-02-16T03:23:41;97312.19;;;-3.12;100.00
11444;BME280;5778;47.856;12.154;2023-02-16T03:26:28;97320.25;;;-3.05;100.00
11444;BME280;5778;47.856;12.154;2023-02-16T03:29:14;97331.56;;;-2.97;100.00
11444;BME280;5778;47.856;12.154;2023-02-16T03:31:45;97325.97;;;-3.02;100.00
11444;BME280;5778;47.856;12.154;2023-02-16T03:34:14;97330.22;;;-3.01;100.00
11444;BME280;5778;47.856;12.154;2023-02-16T03:36:45;97329.94;;;-2.98;100.00
11444;BME280;5778;47.856;12.154;2023-02-16T03:39:14;97324.72;;;-2.98;100.00
11444;BME280;5778;47.856;12.154;2023-02-16T03:41:45;97326.38;;;-2.97;100.00
11444;BME280;5778;47.856;12.154;2023-02-16T03:44:14;97325.13;;;-2.93;100.00
11444;BME280;5778;47.856;12.154;2023-02-16T03:46:42;97335.03;;;-2.79;100.00
11444;BME280;5778;47.856;12.154;2023-02-16T03:49:11;97333.91;;;-2.76;100.00
11444;BME280;5778;47.856;12.154;2023-02-16T03:51:38;97337.03;;;-2.73;100.00
11444;BME280;5778;47.856;12.154;2023-02-16T03:54:06;97348.00;;;-2.69;100.00
11444;BME280;5778;47.856;12.154;2023-02-16T03:56:33;97350.06;;;-2.73;100.00
11444;BME280;5778;47.856;12.154;2023-02-16T03:59:00;97345.94;;;-2.66;100.00
11444;BME280;5778;47.856;12.154;2023-02-16T04:01:28;97345.22;;;-2.58;100.00
11444;BME280;5778;47.856;12.154;2023-02-16T04:03:56;97342.16;;;-2.54;100.00
11444;BME280;5778;47.856;12.154;2023-02-16T04:06:25;97356.28;;;-2.56;100.00
11444;BME280;5778;47.856;12.154;2023-02-16T04:08:53;97359.47;;;-2.62;100.00
11444;BME280;5778;47.856;12.154;2023-02-16T04:11:20;97358.38;;;-2.42;100.00
11444;BME280;5778;47.856;12.154;2023-02-16T04:14:05;97349.06;;;-2.62;100.00
11444;BME280;5778;47.856;12.154;2023-02-16T04:16:33;97363.97;;;-2.55;100.00
11444;BME280;5778;47.856;12.154;2023-02-16T04:19:00;97366.97;;;-2.77;100.00
11444;BME280;5778;47.856;12.154;2023-02-16T04:21:29;97371.50;;;-2.88;100.00
11444;BME280;5778;47.856;12.154;2023-02-16T04:23:57;97368.19;;;-2.81;100.00
11444;BME280;5778;47.856;12.154;2023-02-16T04:26:24;97371.25;;;-2.85;100.00
11444;BME280;5778;47.856;12.154;2023-02-16T04:28:51;97372.75;;;-2.83;100.00
11444;BME280;5778;47.856;12.154;2023-02-16T04:31:19;97373.28;;;-2.79;100.00
11444;BME280;5778;47.856;12.154;2023-02-16T04:33:46;97382.72;;;-2.78;100.00
11444;BME280;5778;47.856;12.154;2023-02-16T04:36:14;97368.16;;;-2.71;100.00
11444;BME280;5778;47.856;12.154;2023-02-16T04:38:43;97361.56;;;-2.66;100.00
11444;BME280;5778;47.856;12.154;2023-02-16T04:41:10;97364.75;;;-2.72;100.00
11444;BME280;5778;47.856;12.154;2023-02-16T04:43:38;97369.50;;;-2.94;100.00
11444;BME280;5778;47.856;12.154;2023-02-16T04:46:06;97357.47;;;-2.78;100.00
11444;BME280;5778;47.856;12.154;2023-02-16T04:48:33;97355.56;;;-2.76;100.00
11444;BME280;5778;47.856;12.154;2023-02-16T04:51:02;97347.84;;;-2.95;100.00
11444;BME280;5778;47.856;12.154;2023-02-16T04:53:30;97345.69;;;-2.99;100.00
11444;BME280;5778;47.856;12.154;2023-02-16T04:55:59;97350.06;;;-3.00;100.00
11444;BME280;5778;47.856;12.154;2023-02-16T04:58:27;97351.03;;;-3.01;100.00
11444;BME280;5778;47.856;12.154;2023-02-16T05:00:54;97348.03;;;-3.06;100.00
11444;BME280;5778;47.856;12.154;2023-02-16T05:03:22;97351.59;;;-3.07;100.00
11444;BME280;5778;47.856;12.154;2023-02-16T05:05:49;97358.81;;;-3.01;100.00
11444;BME280;5778;47.856;12.154;2023-02-16T05:08:17;97358.25;;;-2.95;100.00
11444;BME280;5778;47.856;12.154;2023-02-16T05:10:44;97349.00;;;-2.80;100.00
11444;BME280;5778;47.856;12.154;2023-02-16T05:13:33;97357.28;;;-2.67;100.00
11444;BME280;5778;47.856;12.154;2023-02-16T05:16:19;97349.78;;;-2.70;100.00
11444;BME280;5778;47.856;12.154;2023-02-16T05:18:47;97354.53;;;-2.83;100.00
11444;BME280;5778;47.856;12.154;2023-02-16T05:21:15;97358.03;;;-2.74;100.00
11444;BME280;5778;47.856;12.154;2023-02-16T05:23:57;97361.84;;;-2.69;100.00
11444;BME280;5778;47.856;12.154;2023-02-16T05:26:25;97367.03;;;-2.69;100.00
11444;BME280;5778;47.856;12.154;2023-02-16T05:28:55;97369.69;;;-2.78;100.00
11444;BME280;5778;47.856;12.154;2023-02-16T05:31:25;97363.25;;;-2.84;100.00
11444;BME280;5778;47.856;12.154;2023-02-16T05:33:53;97361.44;;;-2.74;100.00
11444;BME280;5778;47.856;12.154;2023-02-16T05:36:21;97364.03;;;-2.74;100.00
11444;BME280;5778;47.856;12.154;2023-02-16T05:38:48;97360.72;;;-2.66;100.00
11444;BME280;5778;47.856;12.154;2023-02-16T05:41:16;97367.81;;;-2.59;100.00
11444;BME280;5778;47.856;12.154;2023-02-16T05:43:50;97360.28;;;-2.62;100.00
11444;BME280;5778;47.856;12.154;2023-02-16T05:46:20;97369.75;;;-2.61;100.00
11444;BME280;5778;47.856;12.154;2023-02-16T05:48:47;97373.88;;;-2.68;100.00
11444;BME280;5778;47.856;12.154;2023-02-16T05:51:15;97366.44;;;-2.63;100.00
11444;BME280;5778;47.856;12.154;2023-02-16T05:53:43;97363.38;;;-2.76;100.00
11444;BME280;5778;47.856;12.154;2023-02-16T05:56:11;97367.63;;;-2.75;100.00
11444;BME280;5778;47.856;12.154;2023-02-16T05:58:39;97362.56;;;-2.76;100.00
11444;BME280;5778;47.856;12.154;2023-02-16T06:01:07;97370.13;;;-2.83;100.00
11444;BME280;5778;47.856;12.154;2023-02-16T06:03:36;97369.78;;;-2.70;100.00
11444;BME280;5778;47.856;12.154;2023-02-16T06:06:04;97373.59;;;-2.65;100.00
11444;BME280;5778;47.856;12.154;2023-02-16T06:08:32;97373.59;;;-2.65;100.00
11444;BME280;5778;47.856;12.154;2023-02-16T06:11:00;97376.59;;;-2.60;100.00
11444;BME280;5778;47.856;12.154;2023-02-16T06:13:28;97379.78;;;-2.66;100.00
11444;BME280;5778;47.856;12.154;2023-02-16T06:15:55;97374.19;;;-2.71;100.00
11444;BME280;5778;47.856;12.154;2023-02-16T06:18:23;97382.91;;;-2.62;100.00
11444;BME280;5778;47.856;12.154;2023-02-16T06:20:55;97378.69;;;-2.73;100.00
11444;BME280;5778;47.856;12.154;2023-02-16T06:23:23;97376.34;;;-2.66;100.00
11444;BME280;5778;47.856;12.154;2023-02-16T06:25:50;97383.81;;;-2.54;100.00
11444;BME280;5778;47.856;12.154;2023-02-16T06:28:17;97384.25;;;-2.58;100.00
11444;BME280;5778;47.856;12.154;2023-02-16T06:30:45;97384.94;;;-2.56;100.00
11444;BME280;5778;47.856;12.154;2023-02-16T06:33:12;97388.38;;;-2.65;100.00
11444;BME280;5778;47.856;12.154;2023-02-16T06:35:39;97391.28;;;-2.68;100.00
11444;BME280;5778;47.856;12.154;2023-02-16T06:38:08;97401.00;;;-2.61;100.00
11444;BME280;5778;47.856;12.154;2023-02-16T06:40:35;97392.75;;;-2.56;100.00
11444;BME280;5778;47.856;12.154;2023-02-16T06:43:02;97390.00;;;-2.55;100.00
11444;BME280;5778;47.856;12.154;2023-02-16T06:45:30;97404.91;;;-2.47;100.00
11444;BME280;5778;47.856;12.154;2023-02-16T06:47:57;97394.47;;;-2.47;100.00
11444;BME280;5778;47.856;12.154;2023-02-16T06:50:26;97396.13;;;-2.29;100.00
11444;BME280;5778;47.856;12.154;2023-02-16T06:52:53;97408.22;;;-2.28;100.00
11444;BME280;5778;47.856;12.154;2023-02-16T06:55:22;97410.91;;;-2.02;100.00
11444;BME280;5778;47.856;12.154;2023-02-16T06:57:49;97401.22;;;-2.10;100.00
11444;BME280;5778;47.856;12.154;2023-02-16T07:00:17;97409.41;;;-2.05;100.00
11444;BME280;5778;47.856;12.154;2023-02-16T07:02:45;97409.19;;;-1.94;100.00
11444;BME280;5778;47.856;12.154;2023-02-16T07:05:12;97413.97;;;-1.72;100.00
11444;BME280;5778;47.856;12.154;2023-02-16T07:07:40;97417.31;;;-1.62;100.00
11444;BME280;5778;47.856;12.154;2023-02-16T07:10:08;97418.34;;;-1.55;100.00
11444;BME280;5778;47.856;12.154;2023-02-16T07:12:37;97420.59;;;-1.60;100.00
11444;BME280;5778;47.856;12.154;2023-02-16T07:15:04;97429.19;;;-1.42;100.00
11444;BME280;5778;47.856;12.154;2023-02-16T07:17:32;97412.59;;;-1.41;100.00
11444;BME280;5778;47.856;12.154;2023-02-16T07:20:00;97425.69;;;-1.33;100.00
11444;BME280;5778;47.856;12.154;2023-02-16T07:22:27;97428.44;;;-1.17;100.00
11444;BME280;5778;47.856;12.154;2023-02-16T07:24:55;97427.09;;;-1.21;100.00
11444;BME280;5778;47.856;12.154;2023-02-16T07:27:24;97417.69;;;-1.14;100.00
11444;BME280;5778;47.856;12.154;2023-02-16T07:29:54;97413.28;;;-1.13;100.00
11444;BME280;5778;47.856;12.154;2023-02-16T07:32:21;97411.53;;;-1.05;100.00
11444;BME280;5778;47.856;12.154;2023-02-16T07:34:48;97416.84;;;-0.89;100.00
11444;BME280;5778;47.856;12.154;2023-02-16T07:37:16;97426.75;;;-0.67;100.00
11444;BME280;5778;47.856;12.154;2023-02-16T07:39:44;97421.41;;;-0.57;100.00
11444;BME280;5778;47.856;12.154;2023-02-16T07:42:11;97427.41;;;-0.32;100.00
11444;BME280;5778;47.856;12.154;2023-02-16T07:44:43;97417.44;;;-0.28;100.00
11444;BME280;5778;47.856;12.154;2023-02-16T07:47:11;97423.88;;;-0.15;100.00
11444;BME280;5778;47.856;12.154;2023-02-16T07:49:39;97430.66;;;0.12;100.00
11444;BME280;5778;47.856;12.154;2023-02-16T07:52:07;97422.50;;;0.23;100.00
11444;BME280;5778;47.856;12.154;2023-02-16T07:54:34;97418.28;;;0.46;100.00
11444;BME280;5778;47.856;12.154;2023-02-16T07:57:02;97415.00;;;0.60;100.00
11444;BME280;5778;47.856;12.154;2023-02-16T07:59:30;97420.88;;;0.70;100.00
11444;BME280;5778;47.856;12.154;2023-02-16T08:01:57;97422.53;;;0.71;100.00
11444;BME280;5778;47.856;12.154;2023-02-16T08:04:27;97418.94;;;0.72;100.00
11444;BME280;5778;47.856;12.154;2023-02-16T08:06:54;97434.31;;;0.83;100.00
11444;BME280;5778;47.856;12.154;2023-02-16T08:09:22;97433.16;;;0.85;100.00
11444;BME280;5778;47.856;12.154;2023-02-16T08:11:49;97434.91;;;1.17;100.00
11444;BME280;5778;47.856;12.154;2023-02-16T08:14:17;97434.22;;;1.39;100.00
11444;BME280;5778;47.856;12.154;2023-02-16T08:16:44;97433.78;;;1.66;100.00
11444;BME280;5778;47.856;12.154;2023-02-16T08:19:12;97430.72;;;1.54;100.00
11444;BME280;5778;47.856;12.154;2023-02-16T08:21:41;97425.59;;;1.69;100.00
11444;BME280;5778;47.856;12.154;2023-02-16T08:24:14;97423.19;;;1.90;100.00
11444;BME280;5778;47.856;12.154;2023-02-16T08:26:41;97427.84;;;1.80;100.00
11444;BME280;5778;47.856;12.154;2023-02-16T08:29:09;97427.00;;;2.18;100.00
11444;BME280;5778;47.856;12.154;2023-02-16T08:31:39;97429.47;;;2.42;100.00
11444;BME280;5778;47.856;12.154;2023-02-16T08:34:08;97423.69;;;2.69;100.00
11444;BME280;5778;47.856;12.154;2023-02-16T08:36:37;97419.34;;;2.76;100.00
11444;BME280;5778;47.856;12.154;2023-02-16T08:39:08;97423.38;;;2.86;100.00
11444;BME280;5778;47.856;12.154;2023-02-16T08:41:37;97415.53;;;3.01;100.00
11444;BME280;5778;47.856;12.154;2023-02-16T08:44:06;97422.09;;;3.34;100.00
11444;BME280;5778;47.856;12.154;2023-02-16T08:46:35;97422.47;;;3.60;100.00
11444;BME280;5778;47.856;12.154;2023-02-16T08:49:04;97418.19;;;3.73;100.00
11444;BME280;5778;47.856;12.154;2023-02-16T08:51:34;97411.91;;;3.89;100.00
11444;BME280;5778;47.856;12.154;2023-02-16T08:54:04;97412.97;;;4.09;100.00
11444;BME280;5778;47.856;12.154;2023-02-16T08:56:34;97415.63;;;4.30;100.00
11444;BME280;5778;47.856;12.154;2023-02-16T08:59:02;97406.19;;;4.56;100.00
11444;BME280;5778;47.856;12.154;2023-02-16T09:01:29;97418.78;;;4.82;100.00
11444;BME280;5778;47.856;12.154;2023-02-16T09:03:57;97425.22;;;5.00;100.00
11444;BME280;5778;47.856;12.154;2023-02-16T09:06:24;97416.75;;;5.05;100.00
11444;BME280;5778;47.856;12.154;2023-02-16T09:08:54;97412.50;;;5.31;100.00
11444;BME280;5778;47.856;12.154;2023-02-16T09:11:22;97406.47;;;5.44;100.00
11444;BME280;5778;47.856;12.154;2023-02-16T09:13:52;97416.16;;;5.37;100.00
11444;BME280;5778;47.856;12.154;2023-02-16T09:16:20;97414.72;;;5.62;100.00
11444;BME280;5778;47.856;12.154;2023-02-16T09:18:49;97417.59;;;5.67;100.00
11444;BME280;5778;47.856;12.154;2023-02-16T09:21:21;97409.09;;;5.71;100.00
11444;BME280;5778;47.856;12.154;2023-02-16T09:23:52;97414.72;;;5.96;100.00
11444;BME280;5778;47.856;12.154;2023-02-16T09:26:22;97413.31;;;6.06;100.00
11444;BME280;5778;47.856;12.154;2023-02-16T09:31:21;97412.63;;;6.38;100.00
11444;BME280;5778;47.856;12.154;2023-02-16T09:33:53;97414.63;;;6.30;100.00
11444;BME280;5778;47.856;12.154;2023-02-16T09:36:21;97418.75;;;6.39;100.00
11444;BME280;5778;47.856;12.154;2023-02-16T09:38:48;97416.75;;;6.60;100.00
11444;BME280;5778;47.856;12.154;2023-02-16T09:41:23;97411.47;;;6.54;100.00
11444;BME280;5778;47.856;12.154;2023-02-16T09:43:56;97415.72;;;6.55;100.00
11444;BME280;5778;47.856;12.154;2023-02-16T09:46:29;97405.81;;;6.70;100.00
11444;BME280;5778;47.856;12.154;2023-02-16T09:48:57;97427.78;;;6.90;100.00
11444;BME280;5778;47.856;12.154;2023-02-16T09:51:30;97412.31;;;6.93;100.00
11444;BME280;5778;47.856;12.154;2023-02-16T09:54:06;97414.38;;;6.98;100.00
11444;BME280;5778;47.856;12.154;2023-02-16T09:56:45;97413.72;;;7.35;100.00
11444;BME280;5778;47.856;12.154;2023-02-16T09:59:26;97411.91;;;7.35;100.00
11444;BME280;5778;47.856;12.154;2023-02-16T10:02:13;97413.94;;;7.53;100.00
11444;BME280;5778;47.856;12.154;2023-02-16T10:04:52;97409.84;;;7.44;100.00
11444;BME280;5778;47.856;12.154;2023-02-16T10:07:29;97407.38;;;7.68;100.00
11444;BME280;5778;47.856;12.154;2023-02-16T10:09:59;97407.56;;;7.80;100.00
11444;BME280;5778;47.856;12.154;2023-02-16T10:12:33;97409.09;;;8.07;100.00
11444;BME280;5778;47.856;12.154;2023-02-16T10:15:07;97408.06;;;8.08;100.00
11444;BME280;5778;47.856;12.154;2023-02-16T10:17:44;97396.63;;;8.20;100.00
11444;BME280;5778;47.856;12.154;2023-02-16T10:20:15;97404.25;;;8.41;100.00
11444;BME280;5778;47.856;12.154;2023-02-16T10:22:48;97386.44;;;8.86;100.00
11444;BME280;5778;47.856;12.154;2023-02-16T10:25:20;97393.47;;;9.05;100.00
11444;BME280;5778;47.856;12.154;2023-02-16T10:27:55;97393.28;;;9.24;100.00
11444;BME280;5778;47.856;12.154;2023-02-16T10:30:29;97391.06;;;9.64;100.00
11444;BME280;5778;47.856;12.154;2023-02-16T10:33:09;97391.06;;;9.21;100.00
11444;BME280;5778;47.856;12.154;2023-02-16T10:35:45;97392.25;;;9.25;100.00
11444;BME280;5778;47.856;12.154;2023-02-16T10:38:17;97383.34;;;9.62;100.00
11444;BME280;5778;47.856;12.154;2023-02-16T10:40:54;97376.25;;;9.74;100.00
11444;BME280;5778;47.856;12.154;2023-02-16T10:43:35;97381.50;;;9.81;100.00
11444;BME280;5778;47.856;12.154;2023-02-16T10:46:07;97376.78;;;9.83;100.00
11444;BME280;5778;47.856;12.154;2023-02-16T10:48:38;97370.25;;;10.33;100.00
11444;BME280;5778;47.856;12.154;2023-02-16T10:51:07;97379.34;;;10.55;100.00
11444;BME280;5778;47.856;12.154;2023-02-16T10:53:40;97365.69;;;10.81;100.00
11444;BME280;5778;47.856;12.154;2023-02-16T10:56:30;97376.38;;;10.92;93.04
11444;BME280;5778;47.856;12.154;2023-02-16T10:59:05;97368.06;;;11.46;89.11
11444;BME280;5778;47.856;12.154;2023-02-16T11:01:36;97377.69;;;11.59;78.20
11444;BME280;5778;47.856;12.154;2023-02-16T11:04:06;97366.22;;;11.47;73.58
11444;BME280;5778;47.856;12.154;2023-02-16T11:06:34;97361.13;;;11.57;74.08
11444;BME280;5778;47.856;12.154;2023-02-16T11:09:03;97359.75;;;11.66;64.65
11444;BME280;5778;47.856;12.154;2023-02-16T11:11:34;97350.84;;;11.60;64.05
11444;BME280;5778;47.856;12.154;2023-02-16T11:14:25;97354.75;;;11.81;60.67
11444;BME280;5778;47.856;12.154;2023-02-16T11:17:03;97347.69;;;11.75;57.90
11444;BME280;5778;47.856;12.154;2023-02-16T11:19:37;97348.91;;;11.95;57.54
11444;BME280;5778;47.856;12.154;2023-02-16T11:22:06;97339.28;;;12.06;54.61
11444;BME280;5778;47.856;12.154;2023-02-16T11:24:36;97331.69;;;12.26;53.47
11444;BME280;5778;47.856;12.154;2023-02-16T11:27:06;97327.03;;;12.77;55.98
11444;BME280;5778;47.856;12.154;2023-02-16T11:29:36;97330.00;;;12.64;51.35
11444;BME280;5778;47.856;12.154;2023-02-16T11:32:08;97328.75;;;12.83;52.09
11444;BME280;5778;47.856;12.154;2023-02-16T11:34:39;97324.50;;;13.15;51.76
11444;BME280;5778;47.856;12.154;2023-02-16T11:37:14;97324.16;;;13.12;48.60
11444;BME280;5778;47.856;12.154;2023-02-16T11:39:48;97323.41;;;13.00;48.11
11444;BME280;5778;47.856;12.154;2023-02-16T11:42:28;97319.25;;;12.92;47.50
11444;BME280;5778;47.856;12.154;2023-02-16T11:44:58;97320.25;;;13.19;48.75
11444;BME280;5778;47.856;12.154;2023-02-16T11:47:29;97310.94;;;13.38;48.71
11444;BME280;5778;47.856;12.154;2023-02-16T11:52:45;97302.94;;;13.60;46.58
11444;BME280;5778;47.856;12.154;2023-02-16T11:55:23;97301.97;;;14.09;47.60
11444;BME280;5778;47.856;12.154;2023-02-16T11:57:52;97292.97;;;14.36;47.54
11444;BME280;5778;47.856;12.154;2023-02-16T12:00:23;97286.63;;;14.21;44.77
11444;BME280;5778;47.856;12.154;2023-02-16T12:03:08;97286.50;;;14.11;45.31
11444;BME280;5778;47.856;12.154;2023-02-16T12:05:49;97275.03;;;14.15;43.21
11444;BME280;5778;47.856;12.154;2023-02-16T12:08:30;97273.97;;;14.38;43.72
11444;BME280;5778;47.856;12.154;2023-02-16T12:11:24;97271.25;;;14.33;44.33
11444;BME280;5778;47.856;12.154;2023-02-16T12:14:02;97269.06;;;14.56;43.05
11444;BME280;5778;47.856;12.154;2023-02-16T12:16:36;97267.28;;;14.67;42.61
11444;BME280;5778;47.856;12.154;2023-02-16T12:19:18;97267.09;;;14.47;42.24
11444;BME280;5778;47.856;12.154;2023-02-16T12:21:56;97272.63;;;14.40;42.59
11444;BME280;5778;47.856;12.154;2023-02-16T12:25:23;97260.38;;;14.76;42.76
11444;BME280;5778;47.856;12.154;2023-02-16T12:27:58;97262.56;;;14.79;42.92
11444;BME280;5778;47.856;12.154;2023-02-16T12:30:51;97251.31;;;14.77;42.49
11444;BME280;5778;47.856;12.154;2023-02-16T12:33:44;97245.97;;;14.77;41.01
11444;BME280;5778;47.856;12.154;2023-02-16T12:36:31;97245.44;;;14.80;40.11
11444;BME280;5778;47.856;12.154;2023-02-16T12:39:15;97236.63;;;15.21;39.35
11444;BME280;5778;47.856;12.154;2023-02-16T12:41:52;97234.72;;;15.63;39.67
11444;BME280;5778;47.856;12.154;2023-02-16T12:44:31;97238.09;;;15.38;38.58
11444;BME280;5778;47.856;12.154;2023-02-16T12:47:02;97232.94;;;15.32;38.77
11444;BME280;5778;47.856;12.154;2023-02-16T12:49:42;97224.00;;;15.63;39.06
11444;BME280;5778;47.856;12.154;2023-02-16T12:52:23;97224.38;;;15.86;38.69
11444;BME280;5778;47.856;12.154;2023-02-16T12:55:01;97214.53;;;16.17;37.91
11444;BME280;5778;47.856;12.154;2023-02-16T12:57:35;97213.50;;;16.38;38.59
11444;BME280;5778;47.856;12.154;2023-02-16T13:00:15;97216.22;;;16.48;37.09
11444;BME280;5778;47.856;12.154;2023-02-16T13:03:07;97206.47;;;16.12;36.53
11444;BME280;5778;47.856;12.154;2023-02-16T13:05:39;97208.25;;;15.76;36.98
11444;BME280;5778;47.856;12.154;2023-02-16T13:08:14;97203.34;;;16.55;37.41
11444;BME280;5778;47.856;12.154;2023-02-16T13:10:52;97201.13;;;16.32;36.31
11444;BME280;5778;47.856;12.154;2023-02-16T13:13:45;97196.34;;;16.39;36.09
11444;BME280;5778;47.856;12.154;2023-02-16T13:16:16;97193.88;;;16.22;36.50
11444;BME280;5778;47.856;12.154;2023-02-16T13:18:47;97195.31;;;16.45;35.71
11444;BME280;5778;47.856;12.154;2023-02-16T13:21:29;97197.09;;;16.19;36.30
11444;BME280;5778;47.856;12.154;2023-02-16T13:24:31;97188.22;;;16.04;35.69
11444;BME280;5778;47.856;12.154;2023-02-16T13:27:12;97184.00;;;16.58;34.89
11444;BME280;5778;47.856;12.154;2023-02-16T13:29:57;97184.03;;;16.68;33.63
11444;BME280;5778;47.856;12.154;2023-02-16T13:32:54;97186.59;;;15.98;34.49